Tokyo Downtown, Japan

2:40 PM JST on July 06, 2015 (GMT +0900)
Tokyo (Haneda) International | | Change Station
CLOSE
Current Station
Airport
Location: Tokyo,
Elevation: 26 ft
Nearby Weather Stations

Elev 26 ft 35.55 °N, 139.78 °E | Updated 10 minutes ago

Rain
Rain Mist
68 °F
Feels Like 68 °F
N
6
Wind Variable Wind from NE

Today
High -- | Low -- °F
--% Chance of Precip.
Yesterday
High -- | Low -- °F
Precip. -- in
4:30 AM 7:00 PM
Waning Gibbous, 78% visible
Pressure 29.89 in
Visibility 2.8 miles
Clouds Few 400 ft
Scattered Clouds 700 ft
Mostly Cloudy 1500 ft
Dew Point 66 °F
Humidity 94%
Rainfall 0.00 in
Snow Depth Not available.
UV 4 out of 12
Pollen Not available.
Air Quality Not available.
Flu Activity Not available.
METAR RJTT 060530Z 04005KT 4500 RA BR FEW004 SCT007 BKN015 20/19 Q1012 TEMPO 3000 RA BR FEW005 BKN008 RMK 1ST004 4ST007 6SC015 A2990

More Conditions Fewer Conditions

Pressure 29.89 in
Visibility 2.8 miles
Clouds Few 400 ft
Scattered Clouds 700 ft
Mostly Cloudy 1500 ft
Dew Point 66 °F
Humidity 94%
Rainfall 0.00 in
Snow Depth Not available.
UV 4 out of 12
Pollen Not available.
Air Quality Not available.
Flu Activity Not available.
METAR RJTT 060530Z 04005KT 4500 RA BR FEW004 SCT007 BKN015 20/19 Q1012 TEMPO 3000 RA BR FEW005 BKN008 RMK 1ST004 4ST007 6SC015 A2990

More Conditions Fewer Conditions

10-Day Weather Forecast

×

Almanac

Astronomy

Jul. 06, 2015 Rise Set
Actual Time
Civil Twilight
Nautical Twilight
Astronomical Twilight
Moon
Length of Visible Light
Length of Day
Tomorrow will be .
, % of the Moon is Illuminated

Today's Extremes

Country Highs Country Lows

Community

WunderPhotos

Upload Photos

1,835,491 photos uploaded!

WunderBlogs® & News

Nearby

Air Quality

  Air Quality AQ Index Pollutant
Not available.

Snow Depth

Station Depth Elevation

Earthquake Activity

City Distance Mag. Time & Date
Minimum magnitude displayed is 2.5.

Coastal Water Temperatures

Place Temperature

Stations

Nearby Weather Stations

Station Location Temp. Windchill Dew Point Humidity Wind Precip. Elev Updated Type